Bierset, Belgique

05:04 CEST le 31 juillet 2015 (GMT +0200)
AWANS | | Change Station
CLOSE
Current Station
Stations météorologiques personnelles
Location: VILLERS-L'EVEQUE, LIEGE
Altitude: 455 ft
Stations météo à proximité

Alt. 455 ft 50.71 °N, 5.46 °E | Updated 4 minutes ago

Mist
Brume
47.1 ° F
Paraît 47 ° F
N
0.0
Vent Variable Vent de Sud
Gusts 0.0 mph

Aujourd'hui
Haut(e) -- | Bas -- ° F
--% Risque de précip.
Hier
Haut(e) -- | Bas -- ° F
Precip. -- pouce
6:03 AM 9:25 PM
Pleine lune, 100% visible
Pression 30.12 pouce
Visibilité -9999.0 Miles terrestres
Nuages
Refroidissement éolien 47 ° F
Point de rosée 44 ° F
Humidité 90%
Précipitations 0.00 pouce
Profondeur de la couche neigeuse Non disponible.
UV Non disponible.
Pollen Non disponible.
Qualité de l'air Non disponible.
Flu Activity Non disponible.
METAR EHBK 310255Z AUTO 17002KT 3200 BR NCD 08/08 Q1020

More Conditions Fewer Conditions

Pression 30.12 pouce
Visibilité -9999.0 Miles terrestres
Nuages
Refroidissement éolien 47 ° F
Point de rosée 44 ° F
Humidité 90%
Précipitations 0.00 pouce
Profondeur de la couche neigeuse Non disponible.
UV Non disponible.
Pollen Non disponible.
Qualité de l'air Non disponible.
Flu Activity Non disponible.
METAR EHBK 310255Z AUTO 17002KT 3200 BR NCD 08/08 Q1020

More Conditions Fewer Conditions

10-Day Weather Forecast

×

Almanac

Astronomie

Jul. 31, 2015 Lever Coucher
Temps réel
Crépuscule civil
Crépuscule nautique
Crépuscule astronomique
Lune
Durée de lumière visible
Longueur du jour
Tomorrow will be .
, % of the Moon is Illuminated

Extrêmes aujourd'hui

Country Highs Country Lows

Community

WunderPhotos

Upload Photos

1,842,594 Photos téléchargées !

WunderBlogs® & News

Nearby

Qualité de l'air

  Qualité de l'air Indice de la qualité de l'air Polluant
Not available.

Épaisseur de neige

Station Depth Altitude

Activité sismique

Ville Distance Mag. Time & Date
Minimum magnitude displayed is 2.5.

Températures des eaux côtières

Lieu Température

Stations

Stations météo à proximité

Emplacement de la station Température Refroidissement éolien Point de rosée Humidité Vent Precip. Alt. Mise à jour Type